TimeEST,TemperatureF,Dew PointF,Humidity,Sea Level PressureIn,VisibilityMPH,Wind Direction,Wind SpeedMPH,Gust SpeedMPH,PrecipitationIn,Events,Conditions,WindDirDegrees,DateUTC
12:54 AM,27.0,21.0,78,30.04,10.0,NW,12.7,20.7,N/A,,Mostly Cloudy,310,2012-12-28 05:54:00
1:54 AM,27.0,21.9,81,30.05,10.0,WNW,8.1,-,N/A,,Overcast,300,2012-12-28 06:54:00
2:54 AM,27.0,21.9,81,30.08,10.0,WSW,3.5,-,N/A,,Overcast,250,2012-12-28 07:54:00
3:54 AM,27.0,21.0,78,30.09,10.0,WSW,5.8,-,N/A,,Overcast,240,2012-12-28 08:54:00
4:54 AM,27.0,21.0,78,30.10,10.0,West,9.2,-,N/A,,Overcast,270,2012-12-28 09:54:00
5:54 AM,27.0,21.0,78,30.11,10.0,West,5.8,-,N/A,,Overcast,270,2012-12-28 10:54:00
6:54 AM,27.0,21.0,78,30.14,10.0,WSW,6.9,-,N/A,,Overcast,240,2012-12-28 11:54:00
7:54 AM,26.1,19.9,78,30.14,10.0,WSW,5.8,-,N/A,,Overcast,240,2012-12-28 12:54:00
8:54 AM,26.1,19.9,78,30.14,10.0,West,4.6,-,N/A,,Overcast,260,2012-12-28 13:54:00
9:54 AM,26.1,19.9,78,30.14,10.0,WNW,5.8,-,N/A,,Overcast,300,2012-12-28 14:54:00
10:54 AM,27.0,21.0,78,30.14,10.0,West,3.5,-,N/A,,Overcast,270,2012-12-28 15:54:00
11:54 AM,27.0,21.0,78,30.13,10.0,West,5.8,-,N/A,,Overcast,260,2012-12-28 16:54:00
12:54 PM,27.0,21.0,78,30.12,10.0,WSW,8.1,-,N/A,,Overcast,240,2012-12-28 17:54:00
1:54 PM,28.0,19.9,72,30.12,10.0,WSW,3.5,-,N/A,,Overcast,250,2012-12-28 18:54:00
2:54 PM,28.0,19.9,72,30.10,10.0,NNW,4.6,-,N/A,,Mostly Cloudy,340,2012-12-28 19:54:00
3:54 PM,28.0,21.0,75,30.11,10.0,Calm,Calm,-,N/A,,Overcast,0,2012-12-28 20:54:00
4:54 PM,28.0,21.0,75,30.08,10.0,North,3.5,-,N/A,,Overcast,10,2012-12-28 21:54:00
5:54 PM,27.0,19.9,75,30.09,10.0,NE,3.5,-,N/A,,Overcast,50,2012-12-28 22:54:00
6:54 PM,27.0,21.0,78,30.09,10.0,Calm,Calm,-,N/A,,Overcast,0,2012-12-28 23:54:00
7:54 PM,25.0,19.0,78,30.06,10.0,East,4.6,-,N/A,,Scattered Clouds,80,2012-12-29 00:54:00
8:21 PM,24.8,19.4,80,30.01,10.0,NE,3.5,-,N/A,,Mostly Cloudy,50,2012-12-29 01:21:00
8:46 PM,24.8,21.2,86,30.00,10.0,NNE,3.5,-,N/A,,Scattered Clouds,30,2012-12-29 01:46:00
8:54 PM,24.1,21.9,91,30.06,10.0,Calm,Calm,-,N/A,,Scattered Clouds,0,2012-12-29 01:54:00
9:02 PM,23.0,21.2,93,29.99,8.0,Calm,Calm,-,N/A,,Mostly Cloudy,0,2012-12-29 02:02:00
9:10 PM,23.0,21.2,93,30.00,9.0,Calm,Calm,-,N/A,,Scattered Clouds,0,2012-12-29 02:10:00
9:54 PM,23.0,21.0,92,30.05,9.0,Calm,Calm,-,N/A,,Clear,0,2012-12-29 02:54:00
10:54 PM,21.0,19.9,96,30.04,7.0,NNE,3.5,-,N/A,,Clear,20,2012-12-29 03:54:00
11:54 PM,21.9,19.9,92,30.01,9.0,NNE,5.8,-,N/A,,Scattered Clouds,20,2012-12-29 04:54:00